Time;durP1;ratioP1;P1;durP2;ratioP2;P2;SDS_P1;SDS_P2;PMS_P1;PMS_P2;Temp;Humidity;BMP_temperature;BMP_pressure;BME280_temperature;BME280_humidity;BME280_pressure;Samples;Min_cycle;Max_cycle;Signal;HPM_P1;HPM_P2
2022/03/28 00:01:22;;;;;;;;;;;;;;;;;;5021574;28;19913;-80
2022/03/28 00:03:48;;;;;;;;;;;;;;;;;;5019816;28;19910;-80
2022/03/28 00:06:13;;;;;;;;;;;;;;;;;;5020586;28;20016;-79
2022/03/28 00:08:38;;;;;;;;;;;;;;;;;;5020871;28;20003;-80
2022/03/28 00:11:03;;;;;;;;;;;;;;;;;;5021741;28;20377;-80
2022/03/28 00:13:28;;;;;;;;;;;;;;;;;;5021903;28;19992;-81
2022/03/28 00:15:53;;;;;;;;;;;;;;;;;;5021976;28;19924;-80
2022/03/28 00:18:18;;;;;;;;;;;;;;;;;;5020814;28;20283;-80
2022/03/28 00:20:46;;;;;;;;;;;;;;;;;;5020769;28;20375;-80
2022/03/28 00:23:12;;;;;;;;;;;;;;;;;;5020145;28;19917;-80
2022/03/28 00:25:37;;;;;;;;;;;;;;;;;;5020092;28;19910;-80
2022/03/28 00:28:03;;;;;;;;;;;;;;;;;;5020526;28;19910;-80
2022/03/28 00:30:28;;;;;;;;;;;;;;;;;;5020889;28;19965;-80
2022/03/28 00:32:53;;;;;;;;;;;;;;;;;;5020903;28;20009;-80
2022/03/28 00:35:19;;;;;;;;;;;;;;;;;;5021983;28;20055;-81
2022/03/28 00:37:45;;;;;;;;;;;;;;;;;;5021536;28;20020;-81
2022/03/28 00:40:10;;;;;;;;;;;;;;;;;;5020903;28;19937;-80
2022/03/28 00:42:36;;;;;;;;;;;;;;;;;;5020753;28;19913;-80
2022/03/28 00:45:01;;;;;;;;;;;;;;;;;;5022268;28;19921;-80
2022/03/28 00:47:27;;;;;;;;;;;;;;;;;;5020574;28;19908;-82
2022/03/28 00:49:52;;;;;;;;;;;;;;;;;;5022050;28;19936;-80
2022/03/28 00:52:17;;;;;;;;;;;;;;;;;;5020169;28;20389;-80
2022/03/28 00:54:42;;;;;;;;;;;;;;;;;;5021211;28;20409;-81
2022/03/28 00:57:08;;;;;;;;;;;;;;;;;;5019873;28;20430;-81
2022/03/28 00:59:33;;;;;;;;;;;;;;;;;;5020156;28;20093;-82
2022/03/28 01:01:58;;;;;;;;;;;;;;;;;;5019682;28;19917;-80
2022/03/28 01:04:23;;;;;;;;;;;;;;;;;;5018365;28;19949;-80
2022/03/28 01:06:48;;;;;;;;;;;;;;;;;;5019480;28;20008;-80
2022/03/28 01:09:13;;;;;;;;;;;;;;;;;;5018533;28;19909;-80
2022/03/28 01:11:39;;;;;;;;;;;;;;;;;;5018152;28;19971;-80
2022/03/28 01:14:04;;;;;;;;;;;;;;;;;;5018961;28;19914;-80
2022/03/28 01:16:29;;;;;;;;;;;;;;;;;;5017573;28;20400;-81
2022/03/28 01:18:54;;;;;;;;;;;;;;;;;;5017890;28;19914;-80
2022/03/28 01:21:19;;;;;;;;;;;;;;;;;;5018871;28;19905;-81
2022/03/28 01:23:44;;;;;;;;;;;;;;;;;;5019723;28;19913;-79
2022/03/28 01:26:09;;;;;;;;;;;;;;;;;;5019701;28;20003;-81
2022/03/28 01:28:35;;;;;;;;;;;;;;;;;;5020900;28;19937;-80
2022/03/28 01:31:00;;;;;;;;;;;;;;;;;;5018758;28;19912;-80
2022/03/28 01:33:25;;;;;;;;;;;;;;;;;;5018958;28;19910;-81
2022/03/28 01:35:52;;;;;;;;;;;;;;;;;;5020163;28;19912;-80
2022/03/28 01:38:19;;;;;;;;;;;;;;;;;;5019076;28;20295;-82
2022/03/28 01:40:44;;;;;;;;;;;;;;;;;;5018031;28;20429;-79
2022/03/28 01:43:09;;;;;;;;;;;;;;;;;;5019936;28;19910;-81
2022/03/28 01:45:35;;;;;;;;;;;;;;;;;;5018463;28;19924;-81
2022/03/28 01:48:00;;;;;;;;;;;;;;;;;;5020190;28;20458;-81
2022/03/28 01:50:25;;;;;;;;;;;;;;;;;;5018494;28;19960;-81
2022/03/28 01:52:50;;;;;;;;;;;;;;;;;;5020194;28;19941;-81
2022/03/28 01:55:15;;;;;;;;;;;;;;;;;;5020163;28;20387;-80
2022/03/28 01:57:40;;;;;;;;;;;;;;;;;;5018890;28;19917;-81
2022/03/28 02:00:06;;;;;;;;;;;;;;;;;;5019343;28;19910;-82
2022/03/28 02:02:33;;;;;;;;;;;;;;;;;;5017836;28;19969;-80
2022/03/28 02:04:58;;;;;;;;;;;;;;;;;;5017434;28;19909;-80
2022/03/28 02:07:23;;;;;;;;;;;;;;;;;;5017560;28;19910;-80
2022/03/28 02:09:48;;;;;;;;;;;;;;;;;;5019074;28;20353;-79
2022/03/28 02:12:13;;;;;;;;;;;;;;;;;;5018330;28;20000;-79
2022/03/28 02:14:38;;;;;;;;;;;;;;;;;;5016557;28;19952;-79
2022/03/28 02:17:03;;;;;;;;;;;;;;;;;;5018066;28;19929;-80
2022/03/28 02:19:28;;;;;;;;;;;;;;;;;;5017595;28;19909;-79
2022/03/28 02:21:53;;;;;;;;;;;;;;;;;;5017383;28;19910;-79
2022/03/28 02:24:19;;;;;;;;;;;;;;;;;;5018594;28;20003;-79
2022/03/28 02:26:44;;;;;;;;;;;;;;;;;;5017356;28;20349;-80
2022/03/28 02:29:09;;;;;;;;;;;;;;;;;;5017526;28;19918;-81
2022/03/28 02:31:34;;;;;;;;;;;;;;;;;;5017210;28;20412;-80
2022/03/28 02:33:59;;;;;;;;;;;;;;;;;;5018396;28;20004;-81
2022/03/28 02:36:24;;;;;;;;;;;;;;;;;;5017174;28;19922;-80
2022/03/28 02:38:49;;;;;;;;;;;;;;;;;;5017017;28;19916;-81
2022/03/28 02:41:15;;;;;;;;;;;;;;;;;;5016534;28;19920;-81
2022/03/28 02:43:40;;;;;;;;;;;;;;;;;;5016700;28;19916;-80
2022/03/28 02:46:05;;;;;;;;;;;;;;;;;;5017399;28;19913;-81
2022/03/28 02:48:30;;;;;;;;;;;;;;;;;;5017932;28;19910;-80
2022/03/28 02:50:56;;;;;;;;;;;;;;;;;;5018029;28;19916;-80
2022/03/28 02:53:21;;;;;;;;;;;;;;;;;;5017624;28;19918;-79
2022/03/28 02:55:47;;;;;;;;;;;;;;;;;;5017937;28;19917;-80
2022/03/28 02:58:12;;;;;;;;;;;;;;;;;;5016353;28;20012;-79
2022/03/28 03:00:37;;;;;;;;;;;;;;;;;;5016984;28;19952;-78
2022/03/28 03:03:02;;;;;;;;;;;;;;;;;;5017579;28;20228;-80
2022/03/28 03:05:27;;;;;;;;;;;;;;;;;;5016499;28;19909;-80
2022/03/28 03:07:53;;;;;;;;;;;;;;;;;;5018237;28;19916;-79
2022/03/28 03:10:18;;;;;;;;;;;;;;;;;;5017410;28;19910;-80
2022/03/28 03:12:43;;;;;;;;;;;;;;;;;;5017873;28;19909;-78
2022/03/28 03:15:08;;;;;;;;;;;;;;;;;;5016113;28;19909;-80
2022/03/28 03:17:33;;;;;;;;;;;;;;;;;;5015831;28;19924;-80
2022/03/28 03:19:59;;;;;;;;;;;;;;;;;;5016744;28;20359;-80
2022/03/28 03:22:24;;;;;;;;;;;;;;;;;;5016214;28;20441;-81
2022/03/28 03:24:49;;;;;;;;;;;;;;;;;;5016301;28;19909;-80
2022/03/28 03:27:14;;;;;;;;;;;;;;;;;;5017232;28;19922;-80
2022/03/28 03:29:39;;;;;;;;;;;;;;;;;;5015925;28;20470;-81
2022/03/28 03:32:04;;;;;;;;;;;;;;;;;;5014984;28;20406;-80
2022/03/28 03:34:29;;;;;;;;;;;;;;;;;;5015890;28;19910;-80
2022/03/28 03:36:54;;;;;;;;;;;;;;;;;;5017367;28;19917;-80
2022/03/28 03:39:22;;;;;;;;;;;;;;;;;;5016038;28;19915;-81
2022/03/28 03:41:55;;;;;;;;;;;;;;;;;;5017347;28;20374;-80
2022/03/28 03:44:20;;;;;;;;;;;;;;;;;;5015943;28;19917;-80
2022/03/28 03:46:46;;;;;;;;;;;;;;;;;;5015975;28;19916;-81
2022/03/28 03:49:12;;;;;;;;;;;;;;;;;;5015794;28;20286;-80
2022/03/28 03:51:37;;;;;;;;;;;;;;;;;;5015349;28;20001;-80
2022/03/28 03:54:02;;;;;;;;;;;;;;;;;;5017001;28;19929;-80
2022/03/28 03:56:28;;;;;;;;;;;;;;;;;;5015889;28;19972;-80
2022/03/28 03:58:55;;;;;;;;;;;;;;;;;;5016626;28;20387;-80
2022/03/28 04:01:21;;;;;;;;;;;;;;;;;;5016724;28;19945;-80
2022/03/28 04:03:46;;;;;;;;;;;;;;;;;;5015734;28;20386;-80
2022/03/28 04:06:11;;;;;;;;;;;;;;;;;;5016759;28;20351;-81
2022/03/28 04:08:37;;;;;;;;;;;;;;;;;;5014282;28;19964;-81
2022/03/28 04:11:02;;;;;;;;;;;;;;;;;;5014651;28;19936;-80
2022/03/28 04:13:27;;;;;;;;;;;;;;;;;;5016023;28;20286;-80
2022/03/28 04:15:52;;;;;;;;;;;;;;;;;;5016065;28;19917;-80
2022/03/28 04:18:17;;;;;;;;;;;;;;;;;;5014047;28;19924;-80
2022/03/28 04:20:43;;;;;;;;;;;;;;;;;;5014242;28;20354;-80
2022/03/28 04:23:08;;;;;;;;;;;;;;;;;;5015303;28;19931;-79
2022/03/28 04:25:33;;;;;;;;;;;;;;;;;;5015484;28;19992;-81
2022/03/28 04:27:58;;;;;;;;;;;;;;;;;;5014298;28;19914;-79
2022/03/28 04:30:24;;;;;;;;;;;;;;;;;;5015166;28;19920;-80
2022/03/28 04:32:49;;;;;;;;;;;;;;;;;;5018831;28;19914;-79
2022/03/28 04:35:14;;;;;;;;;;;;;;;;;;5018908;28;19914;-79
2022/03/28 04:37:39;;;;;;;;;;;;;;;;;;5020196;28;19971;-79
2022/03/28 04:40:04;;;;;;;;;;;;;;;;;;5019347;28;20003;-79
2022/03/28 04:42:30;;;;;;;;;;;;;;;;;;5018482;28;20007;-79
2022/03/28 04:44:55;;;;;;;;;;;;;;;;;;5020053;28;19909;-81
2022/03/28 04:47:20;;;;;;;;;;;;;;;;;;5019820;28;20398;-80
2022/03/28 04:49:45;;;;;;;;;;;;;;;;;;5020377;28;19936;-81
2022/03/28 04:52:10;;;;;;;;;;;;;;;;;;5019951;28;19909;-79
2022/03/28 04:54:38;;;;;;;;;;;;;;;;;;5018637;28;20375;-78
2022/03/28 04:57:04;;;;;;;;;;;;;;;;;;5017242;28;20451;-81
2022/03/28 04:59:29;;;;;;;;;;;;;;;;;;5017522;28;19964;-80
2022/03/28 05:01:54;;;;;;;;;;;;;;;;;;5018286;28;20008;-79
2022/03/28 05:04:19;;;;;;;;;;;;;;;;;;5022905;28;20004;-80
2022/03/28 05:06:44;;;;;;;;;;;;;;;;;;5022909;28;19937;-79
2022/03/28 05:09:09;;;;;;;;;;;;;;;;;;5018360;28;19910;-79
2022/03/28 05:11:34;;;;;;;;;;;;;;;;;;5017731;28;19913;-79
2022/03/28 05:14:00;;;;;;;;;;;;;;;;;;5019182;28;19967;-80
2022/03/28 05:16:26;;;;;;;;;;;;;;;;;;5019875;28;19960;-80
2022/03/28 05:18:51;;;;;;;;;;;;;;;;;;5019566;28;19910;-82
2022/03/28 05:21:16;;;;;;;;;;;;;;;;;;5021187;28;19932;-81
2022/03/28 05:23:41;;;;;;;;;;;;;;;;;;5020754;28;19910;-81
2022/03/28 05:26:06;;;;;;;;;;;;;;;;;;5019758;28;20008;-80
2022/03/28 05:28:31;;;;;;;;;;;;;;;;;;5020603;28;19936;-82
2022/03/28 05:30:58;;;;;;;;;;;;;;;;;;5021804;28;19916;-80
2022/03/28 05:33:23;;;;;;;;;;;;;;;;;;5018437;28;20016;-81
2022/03/28 05:35:48;;;;;;;;;;;;;;;;;;5017244;28;19917;-82
2022/03/28 05:38:13;;;;;;;;;;;;;;;;;;5017523;28;19913;-81
2022/03/28 05:40:38;;;;;;;;;;;;;;;;;;5018131;28;20321;-82
2022/03/28 05:43:03;;;;;;;;;;;;;;;;;;5014598;28;19953;-82
2022/03/28 05:45:29;;;;;;;;;;;;;;;;;;5015983;28;20367;-82
2022/03/28 05:47:54;;;;;;;;;;;;;;;;;;5018018;28;19913;-81
2022/03/28 05:50:19;;;;;;;;;;;;;;;;;;5017430;28;19909;-83
2022/03/28 05:52:45;;;;;;;;;;;;;;;;;;5017288;28;20375;-82
2022/03/28 05:55:10;;;;;;;;;;;;;;;;;;5015597;28;19930;-82
2022/03/28 05:57:35;;;;;;;;;;;;;;;;;;5016998;28;19968;-84
2022/03/28 06:00:01;;;;;;;;;;;;;;;;;;5015913;28;20302;-80
2022/03/28 06:02:26;;;;;;;;;;;;;;;;;;5015652;28;19953;-82
2022/03/28 06:04:51;;;;;;;;;;;;;;;;;;5016753;28;19909;-81
2022/03/28 06:07:17;;;;;;;;;;;;;;;;;;5014770;28;19905;-81
2022/03/28 06:09:42;;;;;;;;;;;;;;;;;;5014617;28;19908;-80
2022/03/28 06:12:08;;;;;;;;;;;;;;;;;;5014385;28;20282;-82
2022/03/28 06:14:33;;;;;;;;;;;;;;;;;;5016649;28;19913;-80
2022/03/28 06:16:58;;;;;;;;;;;;;;;;;;5014628;28;19972;-80
2022/03/28 06:19:23;;;;;;;;;;;;;;;;;;5015383;28;19955;-79
2022/03/28 06:21:48;;;;;;;;;;;;;;;;;;5013782;28;19933;-80
2022/03/28 06:24:13;;;;;;;;;;;;;;;;;;5014006;28;20279;-80
2022/03/28 06:26:38;;;;;;;;;;;;;;;;;;5011745;28;20390;-80
2022/03/28 06:29:04;;;;;;;;;;;;;;;;;;5013650;28;19971;-80
2022/03/28 06:31:29;;;;;;;;;;;;;;;;;;5013134;28;20051;-80
2022/03/28 06:34:01;;;;;;;;;;;;;;;;;;5015593;28;20367;-80
2022/03/28 06:36:26;;;;;;;;;;;;;;;;;;5014380;28;19999;-80
2022/03/28 06:38:51;;;;;;;;;;;;;;;;;;5015483;28;19953;-80
2022/03/28 06:41:17;;;;;;;;;;;;;;;;;;5015738;28;19995;-80
2022/03/28 06:43:42;;;;;;;;;;;;;;;;;;5016077;28;20389;-80
2022/03/28 06:46:07;;;;;;;;;;;;;;;;;;5016052;28;19914;-80
2022/03/28 06:48:32;;;;;;;;;;;;;;;;;;5013567;28;19917;-81
2022/03/28 06:50:57;;;;;;;;;;;;;;;;;;5014779;28;19909;-81
2022/03/28 06:53:22;;;;;;;;;;;;;;;;;;5015769;28;19936;-80
2022/03/28 06:55:47;;;;;;;;;;;;;;;;;;5013923;28;20286;-81
2022/03/28 06:58:13;;;;;;;;;;;;;;;;;;5014902;28;19921;-80
2022/03/28 07:00:38;;;;;;;;;;;;;;;;;;5016048;28;19909;-81
2022/03/28 07:03:03;;;;;;;;;;;;;;;;;;5013999;28;19909;-81
2022/03/28 07:05:32;;;;;;;;;;;;;;;;;;5015568;28;19964;-80
2022/03/28 07:07:57;;;;;;;;;;;;;;;;;;5015927;28;19948;-80
2022/03/28 07:10:23;;;;;;;;;;;;;;;;;;5015145;28;19913;-81
2022/03/28 07:12:48;;;;;;;;;;;;;;;;;;5014195;28;19910;-81
2022/03/28 07:15:13;;;;;;;;;;;;;;;;;;5014501;28;19909;-80
2022/03/28 07:17:39;;;;;;;;;;;;;;;;;;5014047;28;19956;-80
2022/03/28 07:20:04;;;;;;;;;;;;;;;;;;5013284;28;19909;-79
2022/03/28 07:22:29;;;;;;;;;;;;;;;;;;5013775;28;20287;-80
2022/03/28 07:24:54;;;;;;;;;;;;;;;;;;5015243;28;19910;-80
2022/03/28 07:27:19;;;;;;;;;;;;;;;;;;5015924;28;19910;-80
2022/03/28 07:29:44;;;;;;;;;;;;;;;;;;5015038;28;19921;-80
2022/03/28 07:32:09;;;;;;;;;;;;;;;;;;5013521;28;19931;-79
2022/03/28 07:34:35;;;;;;;;;;;;;;;;;;5013501;28;20087;-79
2022/03/28 07:37:02;;;;;;;;;;;;;;;;;;5012630;28;20311;-79
2022/03/28 07:39:28;;;;;;;;;;;;;;;;;;5013995;28;19910;-79
2022/03/28 07:41:53;;;;;;;;;;;;;;;;;;5013983;28;20001;-78
2022/03/28 07:44:18;;;;;;;;;;;;;;;;;;5013907;28;19949;-79
2022/03/28 07:46:44;;;;;;;;;;;;;;;;;;5013537;28;20008;-79
2022/03/28 07:49:10;;;;;;;;;;;;;;;;;;5013699;28;20410;-79
2022/03/28 07:51:35;;;;;;;;;;;;;;;;;;5013517;28;19905;-79
2022/03/28 07:54:00;;;;;;;;;;;;;;;;;;5013886;28;19964;-80
2022/03/28 07:56:25;;;;;;;;;;;;;;;;;;4998944;28;20020;-78
2022/03/28 07:58:50;;;;;;;;;;;;;;;;;;5013076;28;19914;-77
2022/03/28 08:01:15;;;;;;;;;;;;;;;;;;5013641;28;19918;-83
2022/03/28 08:03:41;;;;;;;;;;;;;;;;;;5014724;28;19909;-78
2022/03/28 08:06:06;;;;;;;;;;;;;;;;;;5016575;28;19910;-79
2022/03/28 08:08:32;;;;;;;;;;;;;;;;;;5001250;28;19917;-79
2022/03/28 08:10:57;;;;;;;;;;;;;;;;;;5001320;28;19916;-79
2022/03/28 08:13:22;;;;;;;;;;;;;;;;;;5001765;28;19996;-78
2022/03/28 08:15:47;;;;;;;;;;;;;;;;;;5019060;28;19910;-78
2022/03/28 08:18:12;;;;;;;;;;;;;;;;;;5019109;28;20433;-78
2022/03/28 08:20:38;;;;;;;;;;;;;;;;;;5018732;28;19898;-78
2022/03/28 08:23:03;;;;;;;;;;;;;;;;;;5001759;28;19917;-78
2022/03/28 08:25:30;;;;;;;;;;;;;;;;;;5017340;28;20317;-78
2022/03/28 08:27:55;;;;;;;;;;;;;;;;;;5001056;28;19958;-78
2022/03/28 08:30:21;;;;;;;;;;;;;;;;;;5018436;28;20458;-79
2022/03/28 08:32:47;;;;;;;;;;;;;;;;;;5018297;28;20379;-78
2022/03/28 08:35:12;;;;;;;;;;;;;;;;;;5000835;28;19916;-78
2022/03/28 08:37:38;;;;;;;;;;;;;;;;;;5017900;28;19918;-78
2022/03/28 08:40:03;;;;;;;;;;;;;;;;;;5000364;28;19917;-78
2022/03/28 08:42:28;;;;;;;;;;;;;;;;;;4999527;28;19910;-77
2022/03/28 08:44:53;;;;;;;;;;;;;;;;;;5017945;28;20426;-81
2022/03/28 08:47:18;;;;;;;;;;;;;;;;;;5000889;28;19910;-81
2022/03/28 08:49:43;;;;;;;;;;;;;;;;;;5018290;28;19921;-80
2022/03/28 08:52:08;;;;;;;;;;;;;;;;;;5018296;28;19910;-81
2022/03/28 08:54:34;;;;;;;;;;;;;;;;;;4996504;28;19944;-80
2022/03/28 08:56:59;;;;;;;;;;;;;;;;;;4998700;28;19933;-79
2022/03/28 08:59:24;;;;;;;;;;;;;;;;;;4995800;28;19924;-81
2022/03/28 09:01:50;;;;;;;;;;;;;;;;;;4997158;28;19957;-81
2022/03/28 09:04:15;;;;;;;;;;;;;;;;;;4997125;28;19913;-79
2022/03/28 09:06:42;;;;;;;;;;;;;;;;;;4998311;28;19917;-79
2022/03/28 09:09:07;;;;;;;;;;;;;;;;;;4997010;28;20383;-79
2022/03/28 09:11:33;;;;;;;;;;;;;;;;;;4996726;28;19914;-80
2022/03/28 09:13:58;;;;;;;;;;;;;;;;;;4996457;28;20486;-80
2022/03/28 09:16:23;;;;;;;;;;;;;;;;;;4995926;28;19921;-80
2022/03/28 09:18:48;;;;;;;;;;;;;;;;;;4996851;28;19914;-80
2022/03/28 09:21:16;;;;;;;;;;;;;;;;;;4998116;28;19910;-80
2022/03/28 09:23:42;;;;;;;;;;;;;;;;;;4996267;28;20360;-80
2022/03/28 09:26:08;;;;;;;;;;;;;;;;;;4996921;28;19920;-80
2022/03/28 09:28:33;;;;;;;;;;;;;;;;;;4996987;28;19918;-80
2022/03/28 09:30:58;;;;;;;;;;;;;;;;;;4995074;28;19910;-79
2022/03/28 09:33:25;;;;;;;;;;;;;;;;;;4995731;28;19913;-80
2022/03/28 09:35:50;;;;;;;;;;;;;;;;;;4996694;28;19965;-79
2022/03/28 09:38:18;;;;;;;;;;;;;;;;;;4996344;28;19926;-80
2022/03/28 09:40:43;;;;;;;;;;;;;;;;;;4994977;28;19957;-79
2022/03/28 09:43:08;;;;;;;;;;;;;;;;;;4997275;28;19914;-79
2022/03/28 09:45:33;;;;;;;;;;;;;;;;;;4997717;28;19917;-77
2022/03/28 09:47:59;;;;;;;;;;;;;;;;;;4996393;28;19913;-79
2022/03/28 09:50:24;;;;;;;;;;;;;;;;;;4997574;28;19933;-79
2022/03/28 09:52:49;;;;;;;;;;;;;;;;;;4997695;28;19917;-80
2022/03/28 09:55:15;;;;;;;;;;;;;;;;;;5013506;28;19921;-78
2022/03/28 09:57:40;;;;;;;;;;;;;;;;;;5018219;28;19925;-79
2022/03/28 10:00:07;;;;;;;;;;;;;;;;;;5000630;28;19920;-79
2022/03/28 10:02:32;;;;;;;;;;;;;;;;;;5000775;28;20286;-79
2022/03/28 10:04:57;;;;;;;;;;;;;;;;;;5000538;28;20004;-79
2022/03/28 10:07:22;;;;;;;;;;;;;;;;;;5001186;28;19913;-80
2022/03/28 10:09:48;;;;;;;;;;;;;;;;;;5018757;28;19910;-79
2022/03/28 10:12:13;;;;;;;;;;;;;;;;;;5000159;28;19910;-80
2022/03/28 10:14:38;;;;;;;;;;;;;;;;;;5000642;28;19955;-87
2022/03/28 10:17:03;;;;;;;;;;;;;;;;;;5019209;28;19925;-84
2022/03/28 10:19:28;;;;;;;;;;;;;;;;;;5016578;28;19959;-84
2022/03/28 10:21:53;;;;;;;;;;;;;;;;;;5000600;28;19948;-83
2022/03/28 10:24:18;;;;;;;;;;;;;;;;;;5001865;28;19978;-83
2022/03/28 10:26:44;;;;;;;;;;;;;;;;;;5002011;28;19955;-81
2022/03/28 10:29:10;;;;;;;;;;;;;;;;;;4999655;28;19921;-79
2022/03/28 10:31:35;;;;;;;;;;;;;;;;;;4998196;28;19960;-79
2022/03/28 10:34:00;;;;;;;;;;;;;;;;;;5016369;28;19909;-79
2022/03/28 10:36:25;;;;;;;;;;;;;;;;;;5014941;28;19917;-80
2022/03/28 10:38:51;;;;;;;;;;;;;;;;;;5015874;28;19949;-80
2022/03/28 10:41:16;;;;;;;;;;;;;;;;;;4999186;28;20332;-83
2022/03/28 10:43:41;;;;;;;;;;;;;;;;;;5016622;28;20390;-85
2022/03/28 10:46:06;;;;;;;;;;;;;;;;;;5015563;28;19967;-83
2022/03/28 10:48:31;;;;;;;;;;;;;;;;;;4998228;28;20421;-85
2022/03/28 10:50:59;;;;;;;;;;;;;;;;;;5016170;28;19910;-82
2022/03/28 10:53:24;;;;;;;;;;;;;;;;;;5015360;28;19949;-82
2022/03/28 10:55:49;;;;;;;;;;;;;;;;;;4997653;28;19956;-83
2022/03/28 10:58:15;;;;;;;;;;;;;;;;;;5015214;28;20419;-84
2022/03/28 11:00:40;;;;;;;;;;;;;;;;;;5015505;28;19909;-85
2022/03/28 11:03:05;;;;;;;;;;;;;;;;;;5016712;28;20342;-84
2022/03/28 11:05:31;;;;;;;;;;;;;;;;;;4998488;28;19980;-84
2022/03/28 11:07:56;;;;;;;;;;;;;;;;;;4998392;28;19963;-82
2022/03/28 11:10:23;;;;;;;;;;;;;;;;;;4998906;28;19913;-84
2022/03/28 11:12:51;;;;;;;;;;;;;;;;;;4998636;28;19913;-83
2022/03/28 11:15:16;;;;;;;;;;;;;;;;;;4998379;28;20012;-84
2022/03/28 11:17:41;;;;;;;;;;;;;;;;;;4997927;28;20437;-85
2022/03/28 11:20:06;;;;;;;;;;;;;;;;;;5015823;28;19910;-82
2022/03/28 11:22:31;;;;;;;;;;;;;;;;;;4999725;28;19917;-81
2022/03/28 11:24:58;;;;;;;;;;;;;;;;;;4997068;28;19910;-79
2022/03/28 11:27:23;;;;;;;;;;;;;;;;;;5015910;28;19917;-81
2022/03/28 11:29:48;;;;;;;;;;;;;;;;;;5015862;28;19913;-79
2022/03/28 11:32:13;;;;;;;;;;;;;;;;;;5014917;28;20346;-80
2022/03/28 11:34:39;;;;;;;;;;;;;;;;;;4995793;28;19914;-79
2022/03/28 11:37:04;;;;;;;;;;;;;;;;;;5013308;28;19914;-78
2022/03/28 11:39:31;;;;;;;;;;;;;;;;;;5013820;28;20394;-79
2022/03/28 11:41:56;;;;;;;;;;;;;;;;;;5013041;28;19917;-79
2022/03/28 11:44:21;;;;;;;;;;;;;;;;;;5012120;28;19910;-79
2022/03/28 11:46:48;;;;;;;;;;;;;;;;;;5011835;28;19983;-79
2022/03/28 11:49:13;;;;;;;;;;;;;;;;;;4994470;28;19910;-79
2022/03/28 11:51:38;;;;;;;;;;;;;;;;;;4993996;28;19910;-79
2022/03/28 11:54:03;;;;;;;;;;;;;;;;;;5011993;28;19921;-79
2022/03/28 11:56:29;;;;;;;;;;;;;;;;;;5011305;28;19914;-79
2022/03/28 11:58:54;;;;;;;;;;;;;;;;;;5012634;28;19967;-79
2022/03/28 12:01:19;;;;;;;;;;;;;;;;;;4996017;28;19910;-79
2022/03/28 12:03:45;;;;;;;;;;;;;;;;;;4995896;28;19917;-79
2022/03/28 12:06:10;;;;;;;;;;;;;;;;;;4995877;28;19932;-78
2022/03/28 12:08:35;;;;;;;;;;;;;;;;;;4995151;28;19933;-79
2022/03/28 12:11:00;;;;;;;;;;;;;;;;;;4995236;28;20276;-78
2022/03/28 12:13:25;;;;;;;;;;;;;;;;;;4994587;28;20572;-78
2022/03/28 12:15:50;;;;;;;;;;;;;;;;;;5012023;28;19910;-80
2022/03/28 12:18:15;;;;;;;;;;;;;;;;;;4995727;28;19917;-89
2022/03/28 12:20:42;;;;;;;;;;;;;;;;;;5014738;28;20279;-79
2022/03/28 12:23:07;;;;;;;;;;;;;;;;;;4995210;28;19916;-79
2022/03/28 12:25:35;;;;;;;;;;;;;;;;;;5012700;28;19914;-79
2022/03/28 12:28:00;;;;;;;;;;;;;;;;;;5012674;28;20386;-79
2022/03/28 12:30:25;;;;;;;;;;;;;;;;;;4995495;28;20271;-78
2022/03/28 12:32:50;;;;;;;;;;;;;;;;;;4994976;28;20303;-78
2022/03/28 12:35:17;;;;;;;;;;;;;;;;;;5012709;28;19992;-79
2022/03/28 12:37:42;;;;;;;;;;;;;;;;;;4996184;28;19918;-80
2022/03/28 12:40:07;;;;;;;;;;;;;;;;;;4996035;28;19916;-79
2022/03/28 12:42:33;;;;;;;;;;;;;;;;;;4994806;28;19910;-79
2022/03/28 12:44:58;;;;;;;;;;;;;;;;;;4995455;28;20314;-81
2022/03/28 12:47:23;;;;;;;;;;;;;;;;;;5004332;28;20103;-79
2022/03/28 12:49:49;;;;;;;;;;;;;;;;;;4995862;28;20355;-82
2022/03/28 12:52:22;;;;;;;;;;;;;;;;;;4992162;28;19910;-79
2022/03/28 12:54:47;;;;;;;;;;;;;;;;;;4996597;28;19929;-80
2022/03/28 12:57:13;;;;;;;;;;;;;;;;;;4995090;28;19922;-80
2022/03/28 12:59:40;;;;;;;;;;;;;;;;;;4996437;28;19920;-80
2022/03/28 13:02:05;;;;;;;;;;;;;;;;;;4996458;28;20368;-79
2022/03/28 13:04:30;;;;;;;;;;;;;;;;;;4995640;28;20368;-80
2022/03/28 13:06:55;;;;;;;;;;;;;;;;;;4994892;28;20371;-78
2022/03/28 13:09:20;;;;;;;;;;;;;;;;;;5012423;28;19909;-78
2022/03/28 13:11:46;;;;;;;;;;;;;;;;;;5015516;28;19921;-78
2022/03/28 13:14:11;;;;;;;;;;;;;;;;;;5015604;28;19916;-80
2022/03/28 13:16:36;;;;;;;;;;;;;;;;;;4997613;28;20363;-78
2022/03/28 13:19:01;;;;;;;;;;;;;;;;;;5015391;28;19992;-80
2022/03/28 13:21:26;;;;;;;;;;;;;;;;;;4997947;28;20375;-80
2022/03/28 13:23:51;;;;;;;;;;;;;;;;;;4997765;28;20002;-79
2022/03/28 13:26:17;;;;;;;;;;;;;;;;;;5015905;28;19920;-81
2022/03/28 13:28:43;;;;;;;;;;;;;;;;;;5015531;28;20276;-80
2022/03/28 13:31:09;;;;;;;;;;;;;;;;;;4997765;28;20530;-79
2022/03/28 13:33:34;;;;;;;;;;;;;;;;;;5015588;28;19972;-79
2022/03/28 13:35:59;;;;;;;;;;;;;;;;;;4998416;28;19920;-80
2022/03/28 13:38:26;;;;;;;;;;;;;;;;;;4997797;28;19917;-79
2022/03/28 13:40:51;;;;;;;;;;;;;;;;;;5016448;28;20005;-79
2022/03/28 13:43:16;;;;;;;;;;;;;;;;;;5015757;28;19949;-81
2022/03/28 13:45:41;;;;;;;;;;;;;;;;;;4998558;28;20437;-80
2022/03/28 13:48:06;;;;;;;;;;;;;;;;;;4998730;28;19913;-79
2022/03/28 13:50:32;;;;;;;;;;;;;;;;;;5016394;28;19909;-82
2022/03/28 13:52:57;;;;;;;;;;;;;;;;;;4998848;28;19955;-82
2022/03/28 13:55:22;;;;;;;;;;;;;;;;;;5016330;28;19921;-82
2022/03/28 13:57:47;;;;;;;;;;;;;;;;;;5016303;28;19925;-81
2022/03/28 14:00:12;;;;;;;;;;;;;;;;;;5016237;28;20284;-82
2022/03/28 14:02:37;;;;;;;;;;;;;;;;;;4998893;28;19913;-81
2022/03/28 14:05:02;;;;;;;;;;;;;;;;;;4998097;28;19947;-82
2022/03/28 14:07:27;;;;;;;;;;;;;;;;;;4997798;28;19909;-82
2022/03/28 14:09:53;;;;;;;;;;;;;;;;;;4998749;28;20270;-83
2022/03/28 14:12:18;;;;;;;;;;;;;;;;;;5016091;28;20386;-81
2022/03/28 14:14:44;;;;;;;;;;;;;;;;;;4998217;28;19909;-80
2022/03/28 14:17:09;;;;;;;;;;;;;;;;;;5015349;28;20265;-82
2022/03/28 14:19:34;;;;;;;;;;;;;;;;;;4998542;28;19909;-82
2022/03/28 14:21:59;;;;;;;;;;;;;;;;;;4998657;28;19909;-82
2022/03/28 14:24:24;;;;;;;;;;;;;;;;;;5016114;28;20011;-81
2022/03/28 14:26:49;;;;;;;;;;;;;;;;;;5015549;28;19909;-82
2022/03/28 14:29:17;;;;;;;;;;;;;;;;;;5015731;28;19925;-82
2022/03/28 14:31:42;;;;;;;;;;;;;;;;;;5016167;28;19909;-82
2022/03/28 14:34:07;;;;;;;;;;;;;;;;;;5002891;28;19913;-82
2022/03/28 14:36:33;;;;;;;;;;;;;;;;;;5001279;28;19918;-83
2022/03/28 14:38:58;;;;;;;;;;;;;;;;;;5026903;28;19913;-83
2022/03/28 14:41:23;;;;;;;;;;;;;;;;;;5026834;28;19913;-82
2022/03/28 14:43:48;;;;;;;;;;;;;;;;;;4997257;28;19964;-83
2022/03/28 14:48:57;;;;;;;;;;;;;;;;;;4996874;28;19916;-84
2022/03/28 14:51:22;;;;;;;;;;;;;;;;;;4994787;28;20012;-83
2022/03/28 14:53:47;;;;;;;;;;;;;;;;;;4995350;28;20015;-83
2022/03/28 14:56:12;;;;;;;;;;;;;;;;;;5001691;28;19924;-83
2022/03/28 14:58:38;;;;;;;;;;;;;;;;;;5035818;28;20396;-83
2022/03/28 15:01:03;;;;;;;;;;;;;;;;;;5017344;28;20422;-82
2022/03/28 15:03:28;;;;;;;;;;;;;;;;;;5017133;28;19909;-84
2022/03/28 15:05:53;;;;;;;;;;;;;;;;;;5033951;28;19916;-83
2022/03/28 15:08:18;;;;;;;;;;;;;;;;;;5017101;28;19909;-84
2022/03/28 15:10:43;;;;;;;;;;;;;;;;;;5017291;28;19909;-85
2022/03/28 15:13:09;;;;;;;;;;;;;;;;;;5016375;28;19917;-83
2022/03/28 15:15:34;;;;;;;;;;;;;;;;;;5033631;28;19909;-83
2022/03/28 15:17:59;;;;;;;;;;;;;;;;;;5032787;28;19917;-82
2022/03/28 15:20:24;;;;;;;;;;;;;;;;;;5016213;28;20321;-84
2022/03/28 15:22:50;;;;;;;;;;;;;;;;;;5016227;28;19999;-84
2022/03/28 15:25:16;;;;;;;;;;;;;;;;;;5017415;28;19913;-84
2022/03/28 15:27:41;;;;;;;;;;;;;;;;;;5035039;28;20000;-83
2022/03/28 15:30:06;;;;;;;;;;;;;;;;;;5035896;28;19916;-84
2022/03/28 15:32:31;;;;;;;;;;;;;;;;;;5034935;28;19909;-84
2022/03/28 15:34:56;;;;;;;;;;;;;;;;;;5017730;28;19915;-83
2022/03/28 15:37:23;;;;;;;;;;;;;;;;;;5015395;28;20321;-83
2022/03/28 15:39:48;;;;;;;;;;;;;;;;;;5018241;28;19970;-83
2022/03/28 15:42:13;;;;;;;;;;;;;;;;;;5035096;28;19914;-83
2022/03/28 15:44:38;;;;;;;;;;;;;;;;;;5017874;28;19910;-82
2022/03/28 15:47:03;;;;;;;;;;;;;;;;;;5034812;28;20243;-84
2022/03/28 15:49:28;;;;;;;;;;;;;;;;;;5017162;28;19955;-84
2022/03/28 15:51:53;;;;;;;;;;;;;;;;;;5035591;28;19909;-84
2022/03/28 15:54:19;;;;;;;;;;;;;;;;;;5017791;28;20359;-83
2022/03/28 15:56:44;;;;;;;;;;;;;;;;;;5017717;28;19921;-83
2022/03/28 15:59:09;;;;;;;;;;;;;;;;;;5035248;28;19917;-83
2022/03/28 16:01:48;;;;;;;;;;;;;;;;;;5035569;28;19927;-82
2022/03/28 16:04:15;;;;;;;;;;;;;;;;;;5036032;28;19909;-81
2022/03/28 16:06:43;;;;;;;;;;;;;;;;;;5034828;28;19905;-83
2022/03/28 16:09:09;;;;;;;;;;;;;;;;;;5017409;28;19909;-81
2022/03/28 16:11:34;;;;;;;;;;;;;;;;;;5017250;28;20314;-84
2022/03/28 16:13:59;;;;;;;;;;;;;;;;;;5035076;28;20384;-83
2022/03/28 16:16:24;;;;;;;;;;;;;;;;;;5034871;28;19916;-83
2022/03/28 16:18:49;;;;;;;;;;;;;;;;;;5016976;28;20375;-83
2022/03/28 16:21:14;;;;;;;;;;;;;;;;;;5034889;28;19913;-83
2022/03/28 16:23:39;;;;;;;;;;;;;;;;;;5034452;28;20034;-83
2022/03/28 16:26:04;;;;;;;;;;;;;;;;;;5016338;28;20428;-84
2022/03/28 16:28:30;;;;;;;;;;;;;;;;;;5038815;28;19913;-82
2022/03/28 16:30:55;;;;;;;;;;;;;;;;;;5021125;28;19936;-82
2022/03/28 16:33:20;;;;;;;;;;;;;;;;;;5038732;28;19909;-84
2022/03/28 16:35:46;;;;;;;;;;;;;;;;;;5038974;28;20440;-84